Estación Meteorológica Peña el Pijo (Robertgarden) [ 02/03/23 04:13:37 CET ]

Fecha Hora Presion(HPa) Temp (°C) Humedad % Rocio (°C) Viento ( m/s) Direccion Lluvia 1Hora(mm) Lluvia 24H(mm) LLuvia Total(mm)
2012-Oct-14 01:01:13 1009.100 6.8 82 3.9         178.19
2012-Oct-14 02:01:17 1009.100 6.7 84 4.2         178.19
2012-Oct-14 03:01:43 1009.000 6.4 84 3.9         178.19
2012-Oct-14 04:01:43 1008.600 5.9 84 3.4         178.19
2012-Oct-14 05:07:06 1007.800 5.5 86 3.3         178.19
2012-Oct-14 06:01:12 1007.600 6.1 87 4.1         178.19
2012-Oct-14 07:01:12 1007.300 6.2 86 4.0         178.19
2012-Oct-14 08:01:16 1007.000 5.8 86 3.6         178.19
2012-Oct-14 09:01:13 1007.000 5.0 88 3.2         178.19
2012-Oct-14 10:01:14 1006.700 8.9 86 6.7         178.19
2012-Oct-14 11:01:12 1006.400 13.5 65 7.0         178.19
2012-Oct-14 12:01:13 1006.000 16.6 49 5.8         178.19
2012-Oct-14 13:01:14 1005.600 19.4 40 5.5         178.19
2012-Oct-14 14:01:16 1005.000 19.5 39 5.1         178.19
2012-Oct-14 15:01:15 1004.000 21.1 37 5.8 1.4 ENE     178.19
2012-Oct-14 16:01:14 1003.400 22.2 33 5.1         178.19
2012-Oct-14 17:01:13 1003.000 21.6 33 4.6         178.19
2012-Oct-14 18:01:13 1003.000 19.1 35 3.2         178.19
2012-Oct-14 19:01:17 1002.800 15.8 47 4.5         178.19
2012-Oct-14 20:01:14 1002.400 14.2 53 4.8 1.2 SSW     178.19
2012-Oct-14 21:01:17 1002.700 14.3 57 5.9         178.19
2012-Oct-14 22:01:12 1002.200 13.9 62 6.7         178.19
2012-Oct-14 23:01:12 1002.600 13.4 68 7.6         178.19

Temperatura Máxima:22°    Temperatura Mínima:
Presión Máxima:1009.100 Hpa    Presión Mínima:1002.200 Hpa


Volver